createdAt,value
2019-03-04T00:02:22.297Z,12.60
2019-03-04T00:06:30.549Z,12.60
2019-03-04T00:10:38.823Z,12.60
2019-03-04T00:14:47.032Z,12.60
2019-03-04T00:18:55.304Z,12.60
2019-03-04T00:23:03.536Z,12.70
2019-03-04T00:27:11.758Z,12.60
2019-03-04T00:31:20.021Z,12.60
2019-03-04T00:35:28.266Z,12.60
2019-03-04T00:39:36.483Z,12.60
2019-03-04T00:43:44.762Z,12.50
2019-03-04T00:47:53.026Z,12.50
2019-03-04T00:52:01.259Z,12.50
2019-03-04T00:56:09.508Z,12.40
2019-03-04T01:00:19.722Z,12.50
2019-03-04T01:04:27.966Z,12.60
2019-03-04T01:08:36.171Z,12.60
2019-03-04T01:12:44.456Z,12.70
2019-03-04T01:16:52.671Z,12.70
2019-03-04T01:21:00.899Z,12.70
2019-03-04T01:25:10.849Z,12.60
2019-03-04T01:29:19.058Z,12.60
2019-03-04T01:33:27.295Z,12.70
2019-03-04T01:37:35.514Z,12.60
2019-03-04T01:41:43.719Z,12.70
2019-03-04T01:45:51.977Z,12.60
2019-03-04T01:50:00.328Z,12.70
2019-03-04T01:54:08.495Z,12.70
2019-03-04T01:58:16.756Z,12.70
2019-03-04T02:02:24.971Z,12.70
2019-03-04T02:06:33.232Z,12.70
2019-03-04T02:10:41.455Z,12.60
2019-03-04T02:14:49.720Z,12.60
2019-03-04T02:18:57.974Z,12.50
2019-03-04T02:23:06.182Z,12.50
2019-03-04T02:27:14.433Z,12.50
2019-03-04T02:31:22.651Z,12.50
2019-03-04T02:35:30.895Z,12.40
2019-03-04T02:39:39.133Z,12.40
2019-03-04T02:43:47.353Z,12.30
2019-03-04T02:47:55.621Z,12.30
2019-03-04T02:52:03.882Z,12.30
2019-03-04T02:56:12.127Z,12.30
2019-03-04T03:00:20.344Z,12.20
2019-03-04T03:04:28.612Z,12.10
2019-03-04T03:08:36.867Z,12.20
2019-03-04T03:12:45.142Z,12.10
2019-03-04T03:16:53.394Z,12.10
2019-03-04T03:21:01.628Z,12.10
2019-03-04T03:25:09.860Z,12.00
2019-03-04T03:29:18.112Z,12.00
2019-03-04T03:33:26.396Z,12.10
2019-03-04T03:37:34.626Z,12.30
2019-03-04T03:41:42.914Z,12.40
2019-03-04T03:45:56.383Z,12.70
2019-03-04T03:50:11.216Z,12.80
2019-03-04T03:54:19.574Z,12.90
2019-03-04T03:58:27.815Z,13.00
2019-03-04T04:02:36.112Z,13.00
2019-03-04T04:06:44.350Z,13.00
2019-03-04T04:10:52.612Z,12.90
2019-03-04T04:15:00.858Z,13.00
2019-03-04T04:19:09.114Z,13.00
2019-03-04T04:23:17.402Z,12.80
2019-03-04T04:27:25.619Z,12.80
2019-03-04T04:31:33.868Z,12.70
2019-03-04T04:35:42.095Z,12.70
2019-03-04T04:39:50.360Z,12.70
2019-03-04T04:43:58.615Z,12.70
2019-03-04T04:48:06.913Z,12.90
2019-03-04T04:52:15.096Z,12.90
2019-03-04T04:56:23.720Z,12.90
2019-03-04T05:00:31.971Z,13.00
2019-03-04T05:04:40.225Z,13.00
2019-03-04T05:08:48.473Z,12.90
2019-03-04T05:12:56.690Z,12.90
2019-03-04T05:17:04.925Z,12.90
2019-03-04T05:21:13.154Z,12.80
2019-03-04T05:25:21.395Z,12.70
2019-03-04T05:29:29.636Z,12.70
2019-03-04T05:33:37.861Z,12.80
2019-03-04T05:37:46.126Z,12.80
2019-03-04T05:41:54.359Z,12.70
2019-03-04T05:50:12.605Z,12.40
2019-03-04T05:54:20.837Z,12.10
2019-03-04T05:58:29.041Z,11.60
2019-03-04T06:02:37.265Z,11.10
2019-03-04T06:06:54.534Z,10.70
2019-03-04T06:11:02.800Z,10.50
2019-03-04T06:15:13.551Z,10.40
2019-03-04T06:19:21.765Z,10.20
2019-03-04T06:23:30.001Z,10.20
2019-03-04T06:27:38.242Z,10.00
2019-03-04T06:31:46.487Z,9.90
2019-03-04T06:35:54.721Z,10.00
2019-03-04T06:40:02.930Z,9.90
2019-03-04T06:44:11.110Z,9.90
2019-03-04T06:48:19.339Z,9.90
2019-03-04T06:52:27.562Z,9.90
2019-03-04T06:57:43.097Z,9.90
2019-03-04T07:01:54.658Z,9.90
2019-03-04T07:06:02.875Z,9.80
2019-03-04T07:10:11.109Z,9.80
2019-03-04T07:14:19.303Z,9.80
2019-03-04T07:18:27.555Z,9.70
2019-03-04T07:22:35.742Z,9.70
2019-03-04T07:26:43.980Z,9.80
2019-03-04T07:30:54.282Z,9.90
2019-03-04T07:35:00.453Z,10.00
2019-03-04T07:39:12.974Z,10.10
2019-03-04T07:43:21.190Z,10.20
2019-03-04T07:47:29.415Z,10.10
2019-03-04T07:51:37.623Z,10.20
2019-03-04T07:55:45.847Z,10.20
2019-03-04T07:59:54.041Z,10.30
2019-03-04T08:04:02.273Z,10.30
2019-03-04T08:08:10.527Z,10.30
2019-03-04T08:13:00.134Z,10.30
2019-03-04T08:17:08.326Z,10.30
2019-03-04T08:21:16.591Z,10.20
2019-03-04T08:25:24.799Z,10.20
2019-03-04T08:29:32.986Z,10.30
2019-03-04T08:33:41.177Z,10.40
2019-03-04T08:37:49.403Z,10.50
2019-03-04T08:41:57.644Z,10.50
2019-03-04T08:46:05.887Z,10.60
2019-03-04T08:50:14.343Z,10.80
2019-03-04T08:54:22.593Z,11.00
2019-03-04T08:58:30.793Z,11.00
2019-03-04T09:02:39.030Z,11.20
2019-03-04T09:06:47.289Z,11.20
2019-03-04T09:10:55.471Z,11.20
2019-03-04T09:15:04.105Z,11.20
2019-03-04T09:19:12.273Z,11.30
2019-03-04T09:23:20.567Z,11.10
2019-03-04T09:27:28.782Z,11.00
2019-03-04T09:31:37.065Z,10.70
2019-03-04T09:35:45.230Z,10.40
2019-03-04T09:39:53.515Z,10.20
2019-03-04T09:44:01.722Z,10.00
2019-03-04T09:48:12.007Z,9.80
2019-03-04T09:52:18.230Z,9.60
2019-03-04T09:56:26.440Z,9.50
2019-03-04T10:05:01.343Z,9.60
2019-03-04T10:09:20.394Z,9.80
2019-03-04T10:13:43.990Z,9.80
2019-03-04T10:20:07.426Z,9.90
2019-03-04T10:25:04.688Z,10.10
2019-03-04T10:29:32.691Z,10.10
2019-03-04T10:33:50.226Z,10.10
2019-03-04T10:38:42.978Z,10.20
2019-03-04T10:43:01.734Z,10.20
2019-03-04T10:47:09.959Z,10.20
2019-03-04T10:51:18.782Z,9.80
2019-03-04T10:55:26.541Z,8.70
2019-03-04T10:59:34.780Z,8.20
2019-03-04T11:03:42.967Z,8.10
2019-03-04T11:07:51.198Z,8.00
2019-03-04T11:11:59.376Z,8.00
2019-03-04T11:16:07.622Z,8.00
2019-03-04T11:24:23.788Z,7.80
2019-03-04T11:28:32.034Z,7.90
2019-03-04T11:32:40.226Z,7.90
2019-03-04T11:36:48.536Z,7.90
2019-03-04T11:45:07.103Z,8.20
2019-03-04T11:49:15.320Z,8.30
2019-03-04T11:53:23.519Z,8.50
2019-03-04T11:57:31.732Z,8.60
2019-03-04T12:01:42.924Z,8.60
2019-03-04T12:05:51.222Z,8.70
2019-03-04T12:09:59.432Z,8.60
2019-03-04T12:14:07.625Z,8.60
2019-03-04T12:18:16.007Z,8.50
2019-03-04T12:22:24.211Z,8.60
2019-03-04T12:26:32.445Z,8.70
2019-03-04T12:30:40.625Z,9.00
2019-03-04T12:34:48.859Z,8.90
2019-03-04T12:38:57.161Z,8.80
2019-03-04T12:43:05.357Z,8.70
2019-03-04T12:47:13.626Z,8.70
2019-03-04T12:51:23.497Z,8.60
2019-03-04T12:55:30.064Z,8.70
2019-03-04T12:59:38.310Z,8.70
2019-03-04T13:03:46.562Z,8.60
2019-03-04T13:07:54.819Z,8.60
2019-03-04T13:12:03.013Z,8.70
2019-03-04T13:16:11.252Z,8.70
2019-03-04T13:20:19.481Z,8.70
2019-03-04T13:24:27.703Z,8.70
2019-03-04T13:28:36.861Z,8.60
2019-03-04T13:32:45.157Z,8.60
2019-03-04T13:36:53.361Z,8.60
2019-03-04T13:45:11.165Z,8.80
2019-03-04T13:49:19.390Z,9.10
2019-03-04T13:53:27.594Z,9.10
2019-03-04T13:57:35.830Z,9.10
2019-03-04T14:01:44.063Z,9.20
2019-03-04T14:05:52.318Z,9.20
2019-03-04T14:10:00.564Z,9.30
2019-03-04T14:14:08.782Z,9.30
2019-03-04T14:18:17.049Z,9.40
2019-03-04T14:22:25.268Z,9.80
2019-03-04T14:26:33.453Z,9.80
2019-03-04T14:30:41.758Z,9.80
2019-03-04T14:34:49.978Z,9.70
2019-03-04T14:38:58.243Z,9.70
2019-03-04T14:43:06.467Z,9.60
2019-03-04T14:47:14.685Z,9.50
2019-03-04T14:51:22.924Z,9.50
2019-03-04T14:55:31.141Z,9.50
2019-03-04T14:59:39.363Z,9.60
2019-03-04T15:03:47.614Z,9.50
2019-03-04T15:07:55.916Z,9.60
2019-03-04T15:12:04.058Z,9.60
2019-03-04T15:16:12.302Z,9.50
2019-03-04T15:20:20.760Z,9.50
2019-03-04T15:24:29.000Z,9.40
2019-03-04T15:28:37.237Z,9.50
2019-03-04T15:32:45.438Z,9.40
2019-03-04T15:36:53.669Z,9.50
2019-03-04T15:41:01.912Z,9.40
2019-03-04T15:45:10.253Z,9.30
2019-03-04T15:49:18.461Z,9.30
2019-03-04T15:53:26.679Z,9.30
2019-03-04T15:57:34.856Z,9.30
2019-03-04T16:01:43.039Z,9.30
2019-03-04T16:05:51.276Z,9.40
2019-03-04T16:09:59.527Z,9.40
2019-03-04T16:14:07.730Z,9.40
2019-03-04T16:18:16.040Z,9.40
2019-03-04T16:22:24.238Z,9.40
2019-03-04T16:26:32.434Z,9.30
2019-03-04T16:30:40.790Z,9.30
2019-03-04T16:34:48.993Z,9.40
2019-03-04T16:38:57.263Z,9.30
2019-03-04T16:43:05.475Z,9.30
2019-03-04T16:47:13.666Z,9.20
2019-03-04T16:51:21.945Z,9.00
2019-03-04T16:55:30.127Z,9.00
2019-03-04T16:59:38.371Z,9.00
2019-03-04T17:03:46.603Z,8.90
2019-03-04T17:07:54.803Z,8.90
2019-03-04T17:12:04.926Z,8.80
2019-03-04T17:16:13.324Z,8.70
2019-03-04T17:20:21.541Z,8.60
2019-03-04T17:24:31.090Z,8.60
2019-03-04T17:28:39.449Z,8.50
2019-03-04T17:32:47.681Z,8.50
2019-03-04T17:36:55.875Z,8.40
2019-03-04T17:41:04.426Z,8.30
2019-03-04T17:45:14.212Z,8.30
2019-03-04T17:49:22.438Z,8.30
2019-03-04T17:53:30.641Z,8.30
2019-03-04T17:57:39.062Z,8.40
2019-03-04T18:01:47.285Z,8.40
2019-03-04T18:05:55.475Z,8.30
2019-03-04T18:10:03.883Z,8.30
2019-03-04T18:14:12.130Z,8.30
2019-03-04T18:18:20.295Z,8.30
2019-03-04T18:22:28.620Z,8.30
2019-03-04T18:26:42.440Z,8.20
2019-03-04T18:30:58.309Z,8.20
2019-03-04T18:35:17.725Z,8.20
2019-03-04T18:39:53.640Z,8.20
2019-03-04T18:44:12.407Z,8.20
2019-03-04T18:48:42.974Z,8.10
2019-03-04T18:52:51.288Z,8.20
2019-03-04T18:56:59.445Z,8.20
2019-03-04T19:01:07.667Z,8.20
2019-03-04T19:05:15.908Z,8.10
2019-03-04T19:09:24.100Z,8.10
2019-03-04T19:13:32.327Z,8.10
2019-03-04T19:17:40.529Z,8.00
2019-03-04T19:21:48.784Z,8.00
2019-03-04T19:30:05.741Z,7.90
2019-03-04T19:34:13.964Z,7.90
2019-03-04T19:38:22.178Z,7.90
2019-03-04T19:42:30.422Z,7.80
2019-03-04T19:46:38.691Z,7.80
2019-03-04T19:50:46.971Z,7.80
2019-03-04T19:54:55.329Z,7.80
2019-03-04T19:59:03.618Z,7.70
2019-03-04T20:03:11.869Z,7.70
2019-03-04T20:07:20.188Z,7.80
2019-03-04T20:11:28.491Z,7.80
2019-03-04T20:15:36.717Z,7.80
2019-03-04T20:19:44.944Z,7.80
2019-03-04T20:23:53.212Z,7.80
2019-03-04T20:28:01.522Z,7.80
2019-03-04T20:32:09.814Z,7.80
2019-03-04T20:36:18.173Z,7.90
2019-03-04T20:40:26.389Z,7.90
2019-03-04T20:44:34.630Z,7.90
2019-03-04T20:48:42.957Z,7.90
2019-03-04T20:52:51.277Z,8.10
2019-03-04T20:56:59.566Z,8.10
2019-03-04T21:01:07.855Z,8.10
2019-03-04T21:05:16.314Z,8.10
2019-03-04T21:09:24.535Z,7.80
2019-03-04T21:13:35.786Z,7.30
2019-03-04T21:21:49.088Z,6.90
2019-03-04T21:26:18.110Z,6.90
2019-03-04T21:30:40.173Z,6.90
2019-03-04T21:36:03.329Z,6.90
2019-03-04T21:44:39.260Z,6.90
2019-03-04T21:48:51.572Z,7.00
2019-03-04T21:53:06.238Z,7.10
2019-03-04T21:57:28.864Z,7.10
2019-03-04T22:01:41.328Z,7.10
2019-03-04T22:05:50.696Z,7.10
2019-03-04T22:09:57.830Z,7.10
2019-03-04T22:14:06.131Z,7.10
2019-03-04T22:18:14.368Z,7.10
2019-03-04T22:22:22.590Z,7.20
2019-03-04T22:26:30.821Z,7.20
2019-03-04T22:30:39.049Z,7.20
2019-03-04T22:34:47.289Z,7.20
2019-03-04T22:38:55.558Z,7.30
2019-03-04T22:43:03.787Z,7.30
2019-03-04T22:51:20.111Z,7.40
2019-03-04T22:55:32.954Z,7.40
2019-03-04T22:59:41.165Z,7.40
2019-03-04T23:03:49.419Z,7.40
2019-03-04T23:07:57.617Z,7.40
2019-03-04T23:12:14.261Z,7.60
2019-03-04T23:16:25.389Z,7.50
2019-03-04T23:20:33.599Z,7.60
2019-03-04T23:24:41.834Z,7.60
2019-03-04T23:28:50.091Z,7.50
2019-03-04T23:32:58.307Z,7.50
2019-03-04T23:37:06.545Z,7.50
2019-03-04T23:41:14.766Z,7.50
2019-03-04T23:45:22.988Z,7.40
2019-03-04T23:49:31.202Z,7.40
2019-03-04T23:53:39.513Z,7.50
2019-03-04T23:57:47.752Z,7.40
